Terminal Aerodrome Forecast
Issued by NWS

Home | Current Version | Previous Version | Text Only | Print | Product List | Glossary On
Versions: 1 2 3 4 5 6 7 8 9 10 11 12 13 14 15 16 17 18 19 20 21 22 23 24 25 26 27 28 29 30 31 32 33 34
000
FTUS41 KCTP 242343
TAFBFD
TAF
KBFD 242343Z 2500/2524 04004KT P6SM OVC012
     FM250200 10007KT 5SM BR OVC015
     FM250400 11010G18KT 4SM BR OVC009
     FM250600 13012G20KT 3SM -RA BR OVC007 WS020/17048KT
     FM251500 20011G19KT 4SM -DZ HZ BR OVC007=

USA.gov is the U.S. government's official web portal to all federal, state and local government web resources and services.